createdAt,value
2022-08-03T00:00:26.780Z,101126.72
2022-08-03T00:02:53.691Z,101124.88
2022-08-03T00:05:20.493Z,101111.53
2022-08-03T00:07:48.513Z,101110.69
2022-08-03T00:10:16.687Z,101106.47
2022-08-03T00:12:43.414Z,101103.03
2022-08-03T00:15:15.242Z,101099.47
2022-08-03T00:17:53.286Z,101099.38
2022-08-03T00:20:23.635Z,101099.47
2022-08-03T00:22:50.781Z,101114.81
2022-08-03T00:25:18.066Z,101118.38
2022-08-03T00:27:44.742Z,101116.53
2022-08-03T00:30:12.021Z,101115.09
2022-08-03T00:32:41.375Z,101117.22
2022-08-03T00:35:18.077Z,101108.69
2022-08-03T00:37:59.296Z,101110.00
2022-08-03T00:40:26.103Z,101116.44
2022-08-03T00:42:58.011Z,101107.84
2022-08-03T00:45:30.687Z,101102.59
2022-08-03T00:47:58.385Z,101097.22
2022-08-03T00:50:27.385Z,101101.75
2022-08-03T00:52:56.029Z,101095.47
2022-08-03T00:55:23.477Z,101101.91
2022-08-03T00:57:50.794Z,101103.81
2022-08-03T01:00:21.219Z,101090.69
2022-08-03T01:02:49.871Z,101099.78
2022-08-03T01:05:16.613Z,101107.06
2022-08-03T01:07:55.378Z,101099.97
2022-08-03T01:10:29.383Z,101095.38
2022-08-03T01:13:02.021Z,101098.06
2022-08-03T01:15:59.814Z,101099.00
2022-08-03T01:18:32.689Z,101104.75
2022-08-03T01:21:07.746Z,101095.94
2022-08-03T01:24:01.911Z,101101.47
2022-08-03T01:26:56.342Z,101101.47
2022-08-03T01:30:06.186Z,101102.44
2022-08-03T01:33:01.082Z,101090.94
2022-08-03T01:35:35.531Z,101090.44
2022-08-03T01:38:12.199Z,101085.06
2022-08-03T01:40:41.738Z,101083.19
2022-08-03T01:43:11.710Z,101085.88
2022-08-03T01:45:39.822Z,101086.91
2022-08-03T01:48:07.555Z,101078.34
2022-08-03T01:50:35.187Z,101079.59
2022-08-03T01:53:02.534Z,101082.38
2022-08-03T01:55:32.116Z,101075.97
2022-08-03T01:58:06.703Z,101079.41
2022-08-03T02:00:39.986Z,101080.19
2022-08-03T02:03:08.631Z,101080.09
2022-08-03T02:05:36.651Z,101093.31
2022-08-03T02:08:08.906Z,101079.91
2022-08-03T02:10:37.807Z,101074.47
2022-08-03T02:13:08.450Z,101081.53
2022-08-03T02:15:37.559Z,101074.47
2022-08-03T02:18:07.846Z,101065.75
2022-08-03T02:20:37.709Z,101068.41
2022-08-03T02:23:06.648Z,101063.13
2022-08-03T02:25:38.199Z,101062.28
2022-08-03T02:28:18.270Z,101068.59
2022-08-03T02:30:46.990Z,101068.69
2022-08-03T02:33:27.019Z,101067.91
2022-08-03T02:35:55.103Z,101071.63
2022-08-03T02:38:26.175Z,101059.94
2022-08-03T02:40:56.120Z,101068.88
2022-08-03T02:43:24.658Z,101056.41
2022-08-03T02:45:53.386Z,101061.78
2022-08-03T02:48:25.452Z,101064.38
2022-08-03T02:50:53.680Z,101055.38
2022-08-03T02:53:22.515Z,101066.00
2022-08-03T02:55:50.379Z,101056.22
2022-08-03T02:58:23.499Z,101062.44
2022-08-03T03:00:54.852Z,101062.44
2022-08-03T03:03:22.346Z,101055.47
2022-08-03T03:05:56.194Z,101058.34
2022-08-03T03:08:28.817Z,101052.00
2022-08-03T03:10:59.376Z,101049.50
2022-08-03T03:13:28.234Z,101055.06
2022-08-03T03:15:57.931Z,101050.72
2022-08-03T03:18:25.484Z,101045.47
2022-08-03T03:20:53.251Z,101051.88
2022-08-03T03:23:22.214Z,101048.44
2022-08-03T03:25:50.169Z,101047.75
2022-08-03T03:28:17.170Z,101053.38
2022-08-03T03:30:44.298Z,101051.94
2022-08-03T03:33:11.029Z,101051.16
2022-08-03T03:35:39.005Z,101051.31
2022-08-03T03:38:07.173Z,101053.31
2022-08-03T03:40:35.855Z,101051.50
2022-08-03T03:43:03.344Z,101042.53
2022-08-03T03:45:31.337Z,101046.94
2022-08-03T03:48:00.583Z,101041.41
2022-08-03T03:50:28.181Z,101045.78
2022-08-03T03:52:54.787Z,101050.19
2022-08-03T03:55:21.383Z,101053.03
2022-08-03T03:57:47.986Z,101047.88
2022-08-03T04:00:17.149Z,101047.00
2022-08-03T04:02:44.487Z,101044.25
2022-08-03T04:05:29.426Z,101046.94
2022-08-03T04:08:20.290Z,101043.41
2022-08-03T04:11:14.819Z,101050.38
2022-08-03T04:13:50.375Z,101054.63
2022-08-03T04:16:20.746Z,101059.81
2022-08-03T04:18:55.801Z,101060.38
2022-08-03T04:21:23.678Z,101059.06
2022-08-03T04:23:53.124Z,101071.13
2022-08-03T04:26:22.867Z,101054.69
2022-08-03T04:28:51.363Z,101065.81
2022-08-03T04:31:23.250Z,101058.44
2022-08-03T04:33:52.863Z,101058.25
2022-08-03T04:36:26.767Z,101062.50
2022-08-03T04:38:59.661Z,101067.66
2022-08-03T04:41:27.751Z,101062.13
2022-08-03T04:43:57.393Z,101061.84
2022-08-03T04:46:28.048Z,101058.03
2022-08-03T04:48:55.797Z,101054.97
2022-08-03T04:51:22.847Z,101067.06
2022-08-03T04:53:49.471Z,101068.38
2022-08-03T04:56:16.498Z,101075.31
2022-08-03T04:58:43.083Z,101074.16
2022-08-03T05:01:09.732Z,101072.25
2022-08-03T05:03:36.431Z,101066.59
2022-08-03T05:06:11.101Z,101069.88
2022-08-03T05:08:46.004Z,101077.03
2022-08-03T05:11:14.006Z,101069.94
2022-08-03T05:13:40.562Z,101077.03
2022-08-03T05:16:07.222Z,101069.75
2022-08-03T05:18:33.827Z,101072.25
2022-08-03T05:21:00.415Z,101071.22
2022-08-03T05:23:27.063Z,101068.41
2022-08-03T05:25:53.674Z,101073.59
2022-08-03T05:28:20.306Z,101077.91
2022-08-03T05:30:46.908Z,101074.06
2022-08-03T05:33:13.826Z,101082.78
2022-08-03T05:35:57.589Z,101079.81
2022-08-03T05:38:33.896Z,101080.47
2022-08-03T05:41:22.000Z,101077.50
2022-08-03T05:43:47.568Z,101073.53
2022-08-03T05:46:14.453Z,101074.91
2022-08-03T05:48:41.913Z,101066.41
2022-08-03T05:51:11.858Z,101069.69
2022-08-03T05:53:42.765Z,101065.16
2022-08-03T05:56:13.771Z,101077.44
2022-08-03T05:58:42.218Z,101075.53
2022-08-03T06:01:08.881Z,101072.72
2022-08-03T06:03:35.530Z,101069.09
2022-08-03T06:06:02.104Z,101076.06
2022-08-03T06:08:28.717Z,101070.69
2022-08-03T06:10:55.292Z,101071.47
2022-08-03T06:13:22.109Z,101076.72
2022-08-03T06:15:51.243Z,101063.00
2022-08-03T06:18:17.928Z,101081.41
2022-08-03T06:20:44.497Z,101071.34
2022-08-03T06:23:17.665Z,101084.56
2022-08-03T06:25:45.047Z,101083.63
2022-08-03T06:31:01.431Z,101090.41
2022-08-03T06:34:31.426Z,101084.94
2022-08-03T06:36:15.325Z,101083.09
2022-08-03T06:38:42.053Z,101080.31
2022-08-03T06:41:08.638Z,101089.91
2022-08-03T06:43:37.986Z,101086.06
2022-08-03T06:46:05.720Z,101083.16
2022-08-03T06:48:32.636Z,101076.59
2022-08-03T06:50:59.483Z,101080.03
2022-08-03T06:53:26.120Z,101096.63
2022-08-03T06:55:54.949Z,101099.88
2022-08-03T06:58:22.599Z,101096.84
2022-08-03T07:00:55.344Z,101091.28
2022-08-03T07:03:22.179Z,101085.69
2022-08-03T07:05:49.894Z,101079.97
2022-08-03T07:08:16.739Z,101077.72
2022-08-03T07:10:59.642Z,101077.31
2022-08-03T07:13:26.230Z,101084.97
2022-08-03T07:15:55.032Z,101078.41
2022-08-03T07:18:28.279Z,101079.94
2022-08-03T07:20:57.632Z,101071.44
2022-08-03T07:23:24.330Z,101073.69
2022-08-03T07:25:51.088Z,101069.59
2022-08-03T07:28:18.024Z,101061.81
2022-08-03T07:30:44.588Z,101059.03
2022-08-03T07:33:11.365Z,101054.78
2022-08-03T07:35:38.841Z,101043.38
2022-08-03T07:38:05.520Z,101059.41
2022-08-03T07:40:32.761Z,101052.72
2022-08-03T07:43:00.762Z,101057.34
2022-08-03T07:45:27.389Z,101063.81
2022-08-03T07:47:54.534Z,101071.91
2022-08-03T07:50:22.528Z,101065.31
2022-08-03T07:52:50.379Z,101065.84
2022-08-03T07:55:22.322Z,101064.19
2022-08-03T07:58:07.609Z,101065.97
2022-08-03T08:00:34.384Z,101059.84
2022-08-03T08:03:01.051Z,101072.75
2022-08-03T08:05:28.422Z,101063.97
2022-08-03T08:07:55.500Z,101067.56
2022-08-03T08:10:22.187Z,101066.75
2022-08-03T08:12:49.469Z,101067.88
2022-08-03T08:15:16.199Z,101066.31
2022-08-03T08:17:48.483Z,101064.09
2022-08-03T08:20:28.252Z,101064.59
2022-08-03T08:23:01.342Z,101063.59
2022-08-03T08:25:29.809Z,101067.91
2022-08-03T08:28:22.436Z,101077.72
2022-08-03T08:30:43.301Z,101077.50
2022-08-03T08:33:22.543Z,101072.22
2022-08-03T08:35:50.496Z,101081.03
2022-08-03T08:38:17.079Z,101075.53
2022-08-03T08:40:43.761Z,101069.00
2022-08-03T08:43:10.401Z,101055.88
2022-08-03T08:45:37.695Z,101057.97
2022-08-03T08:48:08.442Z,101060.91
2022-08-03T08:50:38.786Z,101057.13
2022-08-03T08:53:10.711Z,101060.28
2022-08-03T08:55:58.255Z,101046.06
2022-08-03T08:58:29.859Z,101054.91
2022-08-03T09:00:56.737Z,101058.38
2022-08-03T09:03:29.823Z,101056.66
2022-08-03T09:06:01.268Z,101047.66
2022-08-03T09:08:29.338Z,101044.56
2022-08-03T09:10:56.110Z,101045.78
2022-08-03T09:13:23.064Z,101033.75
2022-08-03T09:16:08.693Z,101031.38
2022-08-03T09:18:35.315Z,101036.16
2022-08-03T09:21:32.187Z,101041.16
2022-08-03T09:24:03.928Z,101038.81
2022-08-03T09:26:33.241Z,101046.25
2022-08-03T09:29:07.213Z,101052.78
2022-08-03T09:31:43.561Z,101054.59
2022-08-03T09:34:16.581Z,101048.50
2022-08-03T09:36:48.136Z,101054.41
2022-08-03T09:39:17.242Z,101052.16
2022-08-03T09:41:46.604Z,101061.34
2022-08-03T09:44:24.288Z,101062.97
2022-08-03T09:46:56.754Z,101056.38
2022-08-03T09:49:24.502Z,101056.94
2022-08-03T09:52:38.044Z,101058.69
2022-08-03T09:54:38.427Z,101045.03
2022-08-03T09:57:07.814Z,101050.91
2022-08-03T09:59:35.294Z,101049.91
2022-08-03T10:02:05.920Z,101044.06
2022-08-03T10:04:32.503Z,101047.25
2022-08-03T10:07:06.642Z,101031.28
2022-08-03T10:09:33.423Z,101030.13
2022-08-03T10:12:10.951Z,101030.13
2022-08-03T10:17:26.180Z,101044.28
2022-08-03T10:19:52.760Z,101036.88
2022-08-03T10:22:23.554Z,101034.63
2022-08-03T10:25:00.840Z,101023.47
2022-08-03T10:27:32.703Z,101035.78
2022-08-03T10:30:05.532Z,101039.34
2022-08-03T10:32:37.903Z,101041.19
2022-08-03T10:35:20.012Z,101036.22
2022-08-03T10:38:03.935Z,101029.97
2022-08-03T10:40:48.039Z,101029.41
2022-08-03T10:43:22.025Z,101021.56
2022-08-03T10:45:49.360Z,101023.28
2022-08-03T10:48:17.834Z,101021.44
2022-08-03T10:50:45.015Z,101022.13
2022-08-03T10:53:11.775Z,101029.88
2022-08-03T10:56:04.237Z,101018.59
2022-08-03T10:58:38.243Z,101026.25
2022-08-03T11:01:58.953Z,101031.25
2022-08-03T11:04:29.572Z,101033.22
2022-08-03T11:07:22.182Z,101025.22
2022-08-03T11:09:51.455Z,101033.97
2022-08-03T11:12:31.725Z,101028.53
2022-08-03T11:15:08.746Z,101033.66
2022-08-03T11:17:55.634Z,101036.78
2022-08-03T11:20:48.517Z,101036.19
2022-08-03T11:23:19.907Z,101043.38
2022-08-03T11:26:22.998Z,101029.34
2022-08-03T11:28:49.743Z,101037.09
2022-08-03T11:31:46.909Z,101021.41
2022-08-03T11:34:09.457Z,101025.13
2022-08-03T11:37:13.398Z,101028.84
2022-08-03T11:39:45.777Z,101025.00
2022-08-03T11:42:24.689Z,101019.69
2022-08-03T11:44:52.545Z,101013.44
2022-08-03T11:47:21.171Z,101012.00
2022-08-03T11:49:49.596Z,101012.28
2022-08-03T11:52:17.947Z,101009.44
2022-08-03T11:54:44.632Z,101016.56
2022-08-03T11:57:11.715Z,101001.59
2022-08-03T11:59:42.995Z,101002.44
2022-08-03T12:02:11.647Z,100994.47
2022-08-03T12:05:00.341Z,100998.03
2022-08-03T12:08:03.809Z,100997.16
2022-08-03T12:10:15.701Z,100999.72
2022-08-03T12:12:46.342Z,101004.13
2022-08-03T12:15:13.519Z,101006.84
2022-08-03T12:17:41.799Z,101002.03
2022-08-03T12:20:34.840Z,100993.28
2022-08-03T12:23:06.537Z,100995.03
2022-08-03T12:25:39.265Z,101003.00
2022-08-03T12:28:28.438Z,100990.88
2022-08-03T12:31:02.810Z,100997.38
2022-08-03T12:33:30.512Z,100990.31
2022-08-03T12:36:05.344Z,100983.13
2022-08-03T12:38:33.924Z,100985.06
2022-08-03T12:41:13.651Z,100993.09
2022-08-03T12:43:50.050Z,100994.22
2022-08-03T12:46:20.270Z,100992.19
2022-08-03T12:49:06.992Z,100986.09
2022-08-03T12:51:37.335Z,100990.84
2022-08-03T12:54:05.548Z,100994.53
2022-08-03T12:56:32.295Z,100994.44
2022-08-03T12:58:59.022Z,101002.91
2022-08-03T13:01:27.969Z,100995.97
2022-08-03T13:03:54.722Z,100992.06
2022-08-03T13:06:28.020Z,100992.53
2022-08-03T13:09:06.285Z,100990.41
2022-08-03T13:12:02.013Z,100994.81
2022-08-03T13:14:20.655Z,100993.25
2022-08-03T13:16:49.253Z,100984.63
2022-08-03T13:19:16.132Z,100993.47
2022-08-03T13:21:53.906Z,100986.00
2022-08-03T13:24:31.518Z,100986.25
2022-08-03T13:26:58.988Z,100997.56
2022-08-03T13:29:25.598Z,100997.25
2022-08-03T13:31:52.223Z,101006.16
2022-08-03T13:34:22.943Z,101004.25
2022-08-03T13:37:08.368Z,101009.38
2022-08-03T13:40:00.290Z,101002.84
2022-08-03T13:42:22.930Z,101014.44
2022-08-03T13:44:49.522Z,101004.56
2022-08-03T13:47:16.335Z,101003.16
2022-08-03T13:49:54.859Z,100998.06
2022-08-03T13:52:30.385Z,100998.47
2022-08-03T13:54:57.003Z,100998.00
2022-08-03T13:58:05.171Z,101000.56
2022-08-03T14:00:12.136Z,100999.09
2022-08-03T14:02:38.906Z,101003.44
2022-08-03T14:05:05.865Z,100995.59
2022-08-03T14:07:32.452Z,101005.50
2022-08-03T14:09:59.002Z,101004.38
2022-08-03T14:12:25.588Z,101004.63
2022-08-03T14:14:52.158Z,101001.59
2022-08-03T14:17:19.257Z,100985.78
2022-08-03T14:19:53.268Z,100985.44
2022-08-03T14:22:21.217Z,100983.91
2022-08-03T14:24:49.304Z,100977.91
2022-08-03T14:27:16.259Z,100977.66
2022-08-03T14:29:43.006Z,100965.78
2022-08-03T14:32:13.158Z,100972.56
2022-08-03T14:34:41.429Z,100966.59
2022-08-03T14:37:08.429Z,100957.59
2022-08-03T14:42:21.778Z,100954.72
2022-08-03T14:44:48.410Z,100962.13
2022-08-03T14:47:15.051Z,100960.84
2022-08-03T14:50:33.018Z,100952.44
2022-08-03T14:52:28.898Z,100957.59
2022-08-03T14:54:55.511Z,100947.38
2022-08-03T14:57:22.480Z,100953.84
2022-08-03T14:59:56.711Z,100942.72
2022-08-03T15:02:25.483Z,100949.44
2022-08-03T15:04:52.709Z,100954.03
2022-08-03T15:07:20.736Z,100946.19
2022-08-03T15:09:47.804Z,100953.59
2022-08-03T15:12:14.590Z,100950.50
2022-08-03T15:14:41.615Z,100961.38
2022-08-03T15:17:08.696Z,100945.75
2022-08-03T15:20:00.381Z,100934.78
2022-08-03T15:22:25.239Z,100939.09
2022-08-03T15:26:28.638Z,100944.97
2022-08-03T15:28:03.649Z,100951.00
2022-08-03T15:30:35.961Z,100942.72
2022-08-03T15:33:03.302Z,100944.00
2022-08-03T15:35:29.970Z,100943.44
2022-08-03T15:37:56.614Z,100925.34
2022-08-03T15:40:23.224Z,100922.19
2022-08-03T15:42:49.955Z,100914.63
2022-08-03T15:45:17.658Z,100924.34
2022-08-03T15:47:44.474Z,100912.81
2022-08-03T15:50:12.081Z,100908.97
2022-08-03T15:52:38.762Z,100888.53
2022-08-03T15:55:05.847Z,100886.09
2022-08-03T15:57:32.462Z,100892.09
2022-08-03T15:59:59.054Z,100907.03
2022-08-03T16:02:28.397Z,100898.50
2022-08-03T16:04:55.081Z,100909.47
2022-08-03T16:08:03.838Z,100910.59
2022-08-03T16:10:30.745Z,100902.63
2022-08-03T16:12:58.992Z,100902.34
2022-08-03T16:15:25.683Z,100898.94
2022-08-03T16:17:52.390Z,100890.97
2022-08-03T16:20:31.711Z,100890.94
2022-08-03T16:23:04.148Z,100887.47
2022-08-03T16:25:37.999Z,100877.41
2022-08-03T16:28:07.737Z,100883.00
2022-08-03T16:30:40.279Z,100877.84
2022-08-03T16:33:07.144Z,100881.81
2022-08-03T16:35:33.776Z,100887.84
2022-08-03T16:38:00.422Z,100892.91
2022-08-03T16:40:27.131Z,100893.19
2022-08-03T16:42:54.166Z,100894.09
2022-08-03T16:45:22.155Z,100890.31
2022-08-03T16:48:01.270Z,100900.88
2022-08-03T16:50:31.631Z,100898.34
2022-08-03T16:53:05.810Z,100883.78
2022-08-03T16:55:48.799Z,100890.38
2022-08-03T16:58:34.559Z,100897.97
2022-08-03T17:01:21.158Z,100900.06
2022-08-03T17:04:02.412Z,100903.03
2022-08-03T17:06:35.530Z,100909.34
2022-08-03T17:09:08.401Z,100907.31
2022-08-03T17:11:38.298Z,100898.88
2022-08-03T17:14:11.263Z,100894.47
2022-08-03T17:16:38.931Z,100908.75
2022-08-03T17:19:13.691Z,100902.59
2022-08-03T17:21:50.829Z,100898.47
2022-08-03T17:24:41.492Z,100908.56
2022-08-03T17:27:23.082Z,100901.03
2022-08-03T17:30:13.607Z,100902.59
2022-08-03T17:32:52.567Z,100905.69
2022-08-03T17:35:25.026Z,100914.34
2022-08-03T17:38:06.669Z,100915.75
2022-08-03T17:40:35.750Z,100914.00
2022-08-03T17:44:14.206Z,100913.03
2022-08-03T17:45:52.692Z,100913.91
2022-08-03T17:48:21.530Z,100924.63
2022-08-03T17:51:00.507Z,100916.94
2022-08-03T17:53:31.566Z,100924.81
2022-08-03T17:56:38.796Z,100918.22
2022-08-03T17:59:15.726Z,100922.09
2022-08-03T18:02:23.798Z,100929.47
2022-08-03T18:05:16.397Z,100932.94
2022-08-03T18:08:01.514Z,100935.34
2022-08-03T18:10:49.772Z,100941.06
2022-08-03T18:13:30.342Z,100939.03
2022-08-03T18:16:01.487Z,100946.31
2022-08-03T18:18:35.774Z,100952.00
2022-08-03T18:21:09.319Z,100952.16
2022-08-03T18:23:44.653Z,100952.00
2022-08-03T18:26:17.530Z,100958.41
2022-08-03T18:28:44.622Z,100957.69
2022-08-03T18:31:13.291Z,100957.84
2022-08-03T18:34:32.009Z,100957.84
2022-08-03T18:36:48.866Z,100966.97
2022-08-03T18:39:15.680Z,100958.13
2022-08-03T18:41:46.422Z,100972.63
2022-08-03T18:44:37.415Z,100970.19
2022-08-03T18:47:50.514Z,100962.06
2022-08-03T18:50:28.630Z,100961.31
2022-08-03T18:53:00.134Z,100973.16
2022-08-03T18:55:33.016Z,100968.00
2022-08-03T18:58:25.453Z,100962.59
2022-08-03T19:01:03.533Z,100967.28
2022-08-03T19:03:43.414Z,100973.84
2022-08-03T19:06:19.931Z,100978.53
2022-08-03T19:09:04.295Z,100975.97
2022-08-03T19:12:12.617Z,100984.34
2022-08-03T19:14:49.878Z,100974.78
2022-08-03T19:17:21.259Z,100978.72
2022-08-03T19:19:53.605Z,100975.31
2022-08-03T19:22:21.545Z,100972.72
2022-08-03T19:24:51.684Z,100971.19
2022-08-03T19:27:26.830Z,100954.19
2022-08-03T19:29:58.443Z,100951.63
2022-08-03T19:32:48.252Z,100951.91
2022-08-03T19:35:18.906Z,100961.25
2022-08-03T19:37:55.330Z,100966.22
2022-08-03T19:40:28.695Z,100959.50
2022-08-03T19:43:12.713Z,100959.75
2022-08-03T19:46:04.734Z,100972.44
2022-08-03T19:48:35.369Z,100969.28
2022-08-03T19:51:12.279Z,100957.88
2022-08-03T19:53:45.131Z,100958.13
2022-08-03T19:56:14.368Z,100955.75
2022-08-03T19:58:43.184Z,100962.44
2022-08-03T20:01:21.185Z,100957.16
2022-08-03T20:03:49.035Z,100951.88
2022-08-03T20:06:17.434Z,100943.03
2022-08-03T20:08:44.882Z,100953.97
2022-08-03T20:11:15.912Z,100947.00
2022-08-03T20:13:51.647Z,100949.81
2022-08-03T20:16:18.294Z,100947.25
2022-08-03T20:18:44.947Z,100945.94
2022-08-03T20:21:15.590Z,100938.22
2022-08-03T20:24:01.844Z,100937.03
2022-08-03T20:26:32.139Z,100930.28
2022-08-03T20:29:09.101Z,100931.38
2022-08-03T20:31:37.675Z,100931.66
2022-08-03T20:34:05.579Z,100937.19
2022-08-03T20:36:32.203Z,100938.19
2022-08-03T20:38:59.161Z,100937.44
2022-08-03T20:41:26.683Z,100938.56
2022-08-03T20:43:53.471Z,100930.69
2022-08-03T20:46:29.630Z,100940.81
2022-08-03T20:49:05.185Z,100933.81
2022-08-03T20:51:52.751Z,100934.06
2022-08-03T20:54:28.780Z,100931.50
2022-08-03T20:56:58.321Z,100933.44
2022-08-03T20:59:38.521Z,100941.69
2022-08-03T21:02:19.768Z,100942.06
2022-08-03T21:04:57.430Z,100941.81
2022-08-03T21:07:24.320Z,100941.22
2022-08-03T21:09:57.113Z,100938.63
2022-08-03T21:12:48.991Z,100944.03
2022-08-03T21:16:12.273Z,100950.56
2022-08-03T21:18:11.233Z,100945.66
2022-08-03T21:20:40.922Z,100954.09
2022-08-03T21:23:09.893Z,100944.69
2022-08-03T21:25:40.244Z,100954.28
2022-08-03T21:28:10.255Z,100947.66
2022-08-03T21:30:37.466Z,100940.75
2022-08-03T21:33:07.664Z,100945.81
2022-08-03T21:35:39.927Z,100952.31
2022-08-03T21:38:19.214Z,100948.88
2022-08-03T21:40:48.910Z,100948.03
2022-08-03T21:43:16.125Z,100957.97
2022-08-03T21:45:54.766Z,100954.25
2022-08-03T21:48:27.631Z,100958.69
2022-08-03T21:50:54.737Z,100956.88
2022-08-03T21:53:25.646Z,100955.72
2022-08-03T21:56:14.406Z,100956.72
2022-08-03T21:59:05.490Z,100959.44
2022-08-03T22:01:35.418Z,100952.06
2022-08-03T22:04:06.838Z,100954.53
2022-08-03T22:06:34.911Z,100949.84
2022-08-03T22:09:01.842Z,100949.59
2022-08-03T22:11:28.671Z,100954.75
2022-08-03T22:13:57.310Z,100946.53
2022-08-03T22:16:32.779Z,100941.72
2022-08-03T22:18:59.443Z,100955.72
2022-08-03T22:21:35.783Z,100943.84
2022-08-03T22:24:05.553Z,100946.41
2022-08-03T22:26:35.409Z,100939.91
2022-08-03T22:29:07.563Z,100937.06
2022-08-03T22:31:58.189Z,100938.53
2022-08-03T22:34:26.866Z,100938.25
2022-08-03T22:37:00.320Z,100947.97
2022-08-03T22:39:29.269Z,100948.56
2022-08-03T22:41:59.531Z,100950.91
2022-08-03T22:44:27.591Z,100952.38
2022-08-03T22:46:54.464Z,100961.97
2022-08-03T22:49:22.386Z,100957.41
2022-08-03T22:51:51.888Z,100959.00
2022-08-03T22:54:19.191Z,100951.63
2022-08-03T22:56:47.076Z,100962.31
2022-08-03T22:59:40.976Z,100968.44
2022-08-03T23:02:20.211Z,100970.88
2022-08-03T23:04:55.023Z,100964.53
2022-08-03T23:07:37.644Z,100962.53
2022-08-03T23:10:08.139Z,100968.78
2022-08-03T23:12:36.663Z,100977.78
2022-08-03T23:15:07.342Z,100971.50
2022-08-03T23:17:57.430Z,100980.47
2022-08-03T23:20:27.042Z,100980.47
2022-08-03T23:22:57.686Z,100997.56
2022-08-03T23:25:27.271Z,100990.41
2022-08-03T23:28:05.160Z,101000.38
2022-08-03T23:30:34.923Z,100998.66
2022-08-03T23:33:04.109Z,101000.63
2022-08-03T23:36:29.524Z,101011.66
2022-08-03T23:38:37.272Z,101019.06
2022-08-03T23:41:07.449Z,101016.59
2022-08-03T23:43:52.227Z,101021.53
2022-08-03T23:46:22.579Z,101015.75
2022-08-03T23:48:50.267Z,101020.53
2022-08-03T23:51:38.658Z,101032.56
2022-08-03T23:54:26.789Z,101029.25
2022-08-03T23:57:12.786Z,101034.16
2022-08-03T23:59:46.967Z,101033.56
